• Join FlightAware (Why Join?)
  • Login
  • US Flag 
04:14AM EDT


 

Airport Tracker/Info


-or-


 

Live Flight TrackerFlight Track Log ✈ VOZ733 ✈ 03-May-2012 ✈ YMML / MEL - YBCG / OOL

Flight Track Log - Related Links

Times and Time Zones

All times are in EDT time to prevent confusion due to time zone crossing. See the VOZ733 flight status page for this flight to view local times or setup timezone preferences in your user account.

Time Position Orientation Groundspeed Altitude Reporting Facility
EDT Latitude Longitude Course Direction KTS MPH feet Rate Location/Type
07:39PM -37.6304 144.8303 358° North 164 189 2,000  Level Aus ATC (RADAR)
07:40PM -37.5813 144.8284 26° Northeast 241 277 3,200 1,800 Climbing Aus ATC (RADAR)
07:41PM -37.5407 144.8531 25° Northeast 282 325 4,600 2,640 Climbing Aus ATC (RADAR)
07:41PM -37.5041 144.8749 26° Northeast 293 337 6,100 3,120 Climbing Aus ATC (RADAR)
07:42PM -37.4482 144.9094 28° Northeast 301 346 8,500 2,580 Climbing Aus ATC (RADAR)
07:43PM -37.3741 144.9594 22° Northeast 311 358 10,700 2,280 Climbing Aus ATC (RADAR)
07:44PM -37.2836 145.0050 40° Northeast 364 419 13,100 2,460 Climbing Aus ATC (RADAR)
07:44PM -37.2378 145.0538 40° Northeast 373 429 14,600 2,700 Climbing Aus ATC (RADAR)
07:45PM -37.1687 145.1270 40° Northeast 396 456 17,000 3,000 Climbing Aus ATC (RADAR)
07:46PM -37.1197 145.1794 40° Northeast 399 459 18,800 2,760 Climbing Aus ATC (RADAR)
07:47PM -37.0402 145.2625 40° Northeast 412 474 21,100 2,340 Climbing Aus ATC (RADAR)
07:48PM -36.9034 145.4052 40° Northeast 438 504 24,500 2,100 Climbing Aus ATC (RADAR)
07:49PM -36.8480 145.4629 40° Northeast 451 519 25,500 1,920 Climbing Aus ATC (RADAR)
07:50PM -36.7586 145.5566 39° Northeast 460 529 27,400 2,700 Climbing Aus ATC (RADAR)
07:51PM -36.6801 145.6369 40° Northeast 436 502 30,300 2,220 Climbing Aus ATC (RADAR)
07:51PM -36.6264 145.6927 40° Northeast 438 504 30,600 540 Climbing Aus ATC (RADAR)
07:52PM -36.5272 145.7946 40° Northeast 473 544 31,200 1,200 Climbing Aus ATC (RADAR)
07:53PM -36.3998 145.9259 40° Northeast 473 544 33,300 1,560 Climbing Aus ATC (RADAR)
07:54PM -36.3242 146.0037 40° Northeast 472 543 34,400 1,740 Climbing Aus ATC (RADAR)
07:55PM -36.2336 146.0969 39° Northeast 457 526 36,200 1,500 Climbing Aus ATC (RADAR)
07:56PM -36.1444 146.1872 40° Northeast 453 521 37,200 1,020 Climbing Aus ATC (RADAR)
07:57PM -36.0802 146.2531 39° Northeast 452 520 37,900 600 Climbing Aus ATC (RADAR)
07:58PM -35.9477 146.3873 39° Northeast 466 536 38,400 480 Climbing Aus ATC (RADAR)
07:59PM -35.8383 146.4976 39° Northeast 469 540 39,100 540 Climbing Aus ATC (RADAR)
08:00PM -35.7871 146.5485 39° Northeast 473 544 39,300 120 Climbing Aus ATC (RADAR)
08:01PM -35.6938 146.6424 39° Northeast 471 542 39,300  Level Aus ATC (RADAR)
08:01PM -35.6008 146.7355 39° Northeast 469 540 39,300  Level Aus ATC (RADAR)
08:02PM -35.5169 146.8192 39° Northeast 466 536 39,300 -60 Level Aus ATC (RADAR)
08:04PM -35.3835 146.9506 39° Northeast 459 528 39,200  Descending Aus ATC (RADAR)
08:04PM -35.3006 147.0315 39° Northeast 458 527 39,300 60 Climbing Aus ATC (RADAR)
08:05PM -35.2183 147.1119 38° Northeast 454 522 39,300  Level Aus ATC (RADAR)
08:06PM -35.1600 147.1686 38° Northeast 455 524 39,300  Level Aus ATC (RADAR)
08:07PM -35.0617 147.2637 38° Northeast 451 519 39,300  Level Aus ATC (RADAR)
08:09PM -34.8593 147.4597 38° Northeast 445 512 39,300  Level Aus ATC (RADAR)
08:10PM -34.7700 147.5453 38° Northeast 448 516 39,300  Level Aus ATC (RADAR)
08:11PM -34.6639 147.6463 38° Northeast 447 514 39,300 -60 Level Aus ATC (RADAR)
08:12PM -34.5987 147.7085 38° Northeast 445 512 39,200 -120 Descending Aus ATC (RADAR)
08:12PM -34.5254 147.7785 38° Northeast 446 513 39,200  Level Aus ATC (RADAR)
08:14PM -34.3698 147.9264 38° Northeast 449 517 39,300  Climbing Aus ATC (RADAR)
08:15PM -34.2797 148.0118 38° Northeast 451 519 39,300 -120 Level Aus ATC (RADAR)
08:16PM -34.2136 148.0739 38° Northeast 451 519 39,200  Descending Aus ATC (RADAR)
08:16PM -34.1475 148.1360 38° Northeast 450 518 39,300  Climbing Aus ATC (RADAR)
08:17PM -34.0399 148.2374 38° Northeast 452 520 39,300  Level Aus ATC (RADAR)
08:19PM -33.9065 148.3615 38° Northeast 454 522 39,300 -60 Level Aus ATC (RADAR)
08:19PM -33.8233 148.4393 38° Northeast 452 520 39,200 -120 Descending Aus ATC (RADAR)
08:20PM -33.7401 148.5167 38° Northeast 452 520 39,200  Level Aus ATC (RADAR)
08:21PM -33.6821 148.5709 38° Northeast 450 518 39,200 60 Level Aus ATC (RADAR)
08:22PM -33.5988 148.6479 38° Northeast 452 520 39,300  Climbing Aus ATC (RADAR)
08:23PM -33.5073 148.7324 38° Northeast 451 519 39,200 -60 Descending Aus ATC (RADAR)
08:24PM -33.4075 148.8245 37° Northeast 452 520 39,200  Level Aus ATC (RADAR)
08:25PM -33.2992 148.9234 38° Northeast 450 518 39,200  Level Aus ATC (RADAR)
08:25PM -33.2328 148.9847 37° Northeast 450 518 39,200  Level Aus ATC (RADAR)
08:26PM -33.1740 149.0379 38° Northeast 451 519 39,200  Level Aus ATC (RADAR)
08:27PM -33.0910 149.1143 37° Northeast 448 516 39,200  Level Aus ATC (RADAR)
08:28PM -33.0001 149.1973 37° Northeast 455 524 39,200  Level Aus ATC (RADAR)
08:29PM -32.8825 149.3034 37° Northeast 454 522 39,200  Level Aus ATC (RADAR)
08:30PM -32.7968 149.3809 37° Northeast 452 520 39,200  Level Aus ATC (RADAR)
08:30PM -32.7219 149.4486 41° Northeast 449 517 39,200  Level Aus ATC (RADAR)
08:31PM -32.6361 149.5364 43° Northeast 452 520 39,200  Level Aus ATC (RADAR)
08:32PM -32.5662 149.6125 42° Northeast 444 511 39,200  Level Aus ATC (RADAR)
08:33PM -32.5125 149.6708 43° Northeast 444 511 39,200  Level Aus ATC (RADAR)
08:34PM -32.4066 149.7871 42° Northeast 450 518 39,200  Level Aus ATC (RADAR)
08:35PM -32.3145 149.8864 43° Northeast 439 505 39,200  Level Aus ATC (RADAR)
08:35PM -32.2542 149.9520 42° Northeast 447 514 39,200  Level Aus ATC (RADAR)
08:36PM -32.2004 150.0102 42° Northeast 440 506 39,200  Level Aus ATC (RADAR)
08:37PM -32.1310 150.0847 42° Northeast 443 510 39,200  Level Aus ATC (RADAR)
08:38PM -32.0313 150.1915 42° Northeast 452 520 39,200  Level Aus ATC (RADAR)
08:39PM -31.9389 150.2907 42° Northeast 451 519 39,200  Level Aus ATC (RADAR)
08:40PM -31.8537 150.3817 42° Northeast 453 521 39,200  Level Aus ATC (RADAR)
08:41PM -31.7836 150.4563 42° Northeast 444 511 39,200  Level Aus ATC (RADAR)
08:41PM -31.7223 150.5219 42° Northeast 451 519 39,200  Level Aus ATC (RADAR)
08:42PM -31.6443 150.6046 42° Northeast 445 512 39,200  Level Aus ATC (RADAR)
08:43PM -31.5667 150.6866 42° Northeast 455 524 39,200  Level Aus ATC (RADAR)
08:45PM -31.4038 150.8594 42° Northeast 451 519 39,200  Level Aus ATC (RADAR)
08:46PM -31.3086 150.9587 42° Northeast 447 514 39,200  Level Aus ATC (RADAR)
08:46PM -31.2458 151.0247 42° Northeast 448 516 39,200  Level Aus ATC (RADAR)
08:47PM -31.1837 151.0906 42° Northeast 459 528 39,200  Level Aus ATC (RADAR)
08:48PM -31.0872 151.1906 42° Northeast 452 520 39,200  Level Aus ATC (RADAR)
08:49PM -30.9520 151.3314 42° Northeast 451 519 39,200  Level Aus ATC (RADAR)
08:50PM -30.8490 151.4384 41° Northeast 448 516 39,200  Level Aus ATC (RADAR)
08:51PM -30.7855 151.5036 42° Northeast 447 514 39,200  Level Aus ATC (RADAR)
08:52PM -30.7220 151.5690 42° Northeast 447 514 39,200  Level Aus ATC (RADAR)
08:53PM -30.6432 151.6508 42° Northeast 445 512 39,200  Level Aus ATC (RADAR)
08:53PM -30.5961 151.6994 42° Northeast 445 512 39,200  Level Aus ATC (RADAR)
08:55PM -30.4149 151.8861 41° Northeast 465 535 39,200  Level Aus ATC (RADAR)
08:56PM -30.3318 151.9696 42° Northeast 457 526 39,200  Level Aus ATC (RADAR)
08:57PM -30.2513 152.0525 41° Northeast 472 543 39,200  Level Aus ATC (RADAR)
08:57PM -30.1921 152.1123 42° Northeast 462 532 39,200  Level Aus ATC (RADAR)
08:58PM -30.1097 152.1965 41° Northeast 464 534 39,200  Level Aus ATC (RADAR)
09:00PM -29.9391 152.3699 41° Northeast 470 541 39,200  Level Aus ATC (RADAR)
09:01PM -29.8555 152.4543 41° Northeast 458 527 39,200  Level Aus ATC (RADAR)
09:02PM -29.7753 152.5355 41° Northeast 469 540 39,200  Level Aus ATC (RADAR)
09:02PM -29.7248 152.5857 40° Northeast 456 525 39,200  Level Aus ATC (RADAR)
09:03PM -29.6349 152.6714 35° Northeast 464 534 39,200  Level Aus ATC (RADAR)
09:04PM -29.5470 152.7430 37° Northeast 450 518 39,200 -780 Level Aus ATC (RADAR)
09:05PM -29.4110 152.8595 36° Northeast 439 505 37,500 -2,100 Descending Aus ATC (RADAR)
09:06PM -29.3081 152.9458 36° Northeast 443 510 34,400 -3,000 Descending Aus ATC (RADAR)
09:07PM -29.1857 153.0483 37° Northeast 446 513 31,000 -2,940 Descending Aus ATC (RADAR)
09:08PM -29.1271 153.0989 37° Northeast 437 503 29,300 -2,700 Descending Aus ATC (RADAR)
09:09PM -29.0451 153.1688 36° Northeast 419 482 27,200 -3,300 Descending Aus ATC (RADAR)
09:10PM -28.9281 153.2663 36° Northeast 425 489 22,700 -3,600 Descending Aus ATC (RADAR)
09:11PM -28.8468 153.3344 36° Northeast 416 479 20,100 -3,120 Descending Aus ATC (RADAR)
09:11PM -28.7913 153.3809 37° Northeast 404 465 18,300 -2,880 Descending Aus ATC (RADAR)
09:12PM -28.7075 153.4533 36° Northeast 409 471 15,900 -2,700 Descending Aus ATC (RADAR)
09:13PM -28.6552 153.4969 34° Northeast 396 456 14,400 -2,520 Descending Aus ATC (RADAR)
09:14PM -28.5660 153.5657 23° Northeast 366 421 11,900 -2,640 Descending Aus ATC (RADAR)
09:16PM -28.3502 153.6702 14° North 360 414 5,800 -2,160 Descending Aus ATC (RADAR)
09:17PM -28.2763 153.6909 333° Northwest 328 377 5,300 -600 Descending Aus ATC (RADAR)
09:18PM -28.2279 153.6635 334° Northwest 281 323 4,900 -540 Descending Aus ATC (RADAR)
09:18PM -28.1843 153.6394 334° Northwest 256 295 4,600 -540 Descending Aus ATC (RADAR)
09:19PM -28.1403 153.6146 306° West 233 268 4,200 -960 Descending Aus ATC (RADAR)
09:21PM -28.0807 153.5223 249° West 203 234 2,200 -1,080 Descending Aus ATC (RADAR)
09:22PM -28.0965 153.4765 173° South 164 189 1,400 -900 Descending Aus ATC (RADAR)
09:22PM -28.1246 153.4805 151° Southeast 140 161 700 -780 Descending Aus ATC (RADAR)
09:23PM -28.1480 153.4955 151° Southeast 142 163 300 -420 Descending Aus ATC (RADAR)
09:24PM -28.1723 153.5110 151° Southeast 82 94 100 -240 Descending Aus ATC (RADAR)